Time;durP1;ratioP1;P1;durP2;ratioP2;P2;SDS_P1;SDS_P2;PMS_P1;PMS_P2;Temp;Humidity;BMP_temperature;BMP_pressure;BME280_temperature;BME280_humidity;BME280_pressure;Samples;Min_cycle;Max_cycle;Signal;HPM_P1;HPM_P2
2023/10/26 00:01:41;;;;;;;;;;;;;;;11.01;100.00;94064.38;10512503;28;2536;-76
2023/10/26 00:06:46;;;;;;;;;;;;;;;11.07;100.00;94073.88;10519652;28;2708;-77
2023/10/26 00:11:49;;;;;;;;;;;;;;;11.14;100.00;94073.41;10517056;28;2564;-76
2023/10/26 00:16:56;;;;;;;;;;;;;;;11.17;100.00;94072.75;10496068;28;2573;-77
2023/10/26 00:22:03;;;;;;;;;;;;;;;11.12;100.00;94071.00;10497490;28;2784;-74
2023/10/26 00:27:10;;;;;;;;;;;;;;;11.03;100.00;94046.03;10491659;28;2608;-75
2023/10/26 00:32:16;;;;;;;;;;;;;;;10.91;100.00;94059.31;10512179;28;2611;-75
2023/10/26 00:37:19;;;;;;;;;;;;;;;10.97;100.00;94044.63;10497939;28;2513;-74
2023/10/26 00:42:23;;;;;;;;;;;;;;;11.14;100.00;94058.03;10494347;28;2657;-75
2023/10/26 00:47:27;;;;;;;;;;;;;;;11.27;100.00;94057.06;10520201;28;2588;-74
2023/10/26 00:52:34;;;;;;;;;;;;;;;11.27;100.00;94061.66;10510611;28;5394;-73
2023/10/26 00:57:38;;;;;;;;;;;;;;;11.28;100.00;94080.16;10491692;28;2690;-75
2023/10/26 01:02:43;;;;;;;;;;;;;;;11.22;100.00;94075.28;10494315;28;2534;-75
2023/10/26 01:07:46;;;;;;;;;;;;;;;11.06;100.00;94083.81;10533925;27;2800;-75
2023/10/26 01:12:52;;;;;;;;;;;;;;;10.99;100.00;94083.50;10511085;28;2844;-77
2023/10/26 01:17:57;;;;;;;;;;;;;;;11.05;100.00;94078.75;10475206;28;2751;-75
2023/10/26 01:23:05;;;;;;;;;;;;;;;10.92;100.00;94071.66;10513634;28;2641;-75
2023/10/26 01:28:11;;;;;;;;;;;;;;;10.80;100.00;94073.06;10506406;28;2697;-76
2023/10/26 01:33:16;;;;;;;;;;;;;;;10.55;100.00;94065.78;10529401;28;2624;-76
2023/10/26 01:38:19;;;;;;;;;;;;;;;10.46;100.00;94052.34;10471735;28;2645;-77
2023/10/26 01:43:24;;;;;;;;;;;;;;;10.41;100.00;94039.06;10511977;28;2664;-77
2023/10/26 01:48:29;;;;;;;;;;;;;;;10.24;100.00;94039.84;10510536;28;5147;-75
2023/10/26 01:53:37;;;;;;;;;;;;;;;10.17;100.00;94042.16;10508902;28;2887;-75
2023/10/26 01:58:42;;;;;;;;;;;;;;;10.22;100.00;94043.91;10526380;28;2648;-74
2023/10/26 02:03:46;;;;;;;;;;;;;;;10.04;100.00;94029.63;10492446;28;2892;-77
2023/10/26 02:08:50;;;;;;;;;;;;;;;10.00;100.00;94034.06;10496378;28;2633;-74
2023/10/26 02:13:56;;;;;;;;;;;;;;;9.99;100.00;94033.28;10509230;28;2779;-75
2023/10/26 02:19:01;;;;;;;;;;;;;;;10.00;100.00;94042.13;10491159;28;2796;-75
2023/10/26 02:24:05;;;;;;;;;;;;;;;9.94;100.00;94041.47;10515388;28;2655;-76
2023/10/26 02:29:11;;;;;;;;;;;;;;;9.85;100.00;94034.47;10515630;28;2655;-76
2023/10/26 02:34:15;;;;;;;;;;;;;;;9.85;100.00;94039.84;10512569;28;2698;-77
2023/10/26 02:39:17;;;;;;;;;;;;;;;9.73;100.00;94033.19;10517370;28;2938;-77
2023/10/26 02:44:21;;;;;;;;;;;;;;;9.73;100.00;94038.56;10516423;28;2544;-78
2023/10/26 02:49:25;;;;;;;;;;;;;;;9.76;100.00;94042.50;10491789;28;2927;-76
2023/10/26 02:54:34;;;;;;;;;;;;;;;9.69;100.00;94034.91;10517376;28;2609;-76
2023/10/26 02:59:42;;;;;;;;;;;;;;;9.62;100.00;94031.88;10515838;28;2824;-76
2023/10/26 03:04:47;;;;;;;;;;;;;;;9.52;100.00;94034.81;10514594;28;2658;-76
2023/10/26 03:09:51;;;;;;;;;;;;;;;9.39;100.00;94035.72;10499576;28;2557;-77
2023/10/26 03:14:58;;;;;;;;;;;;;;;9.32;100.00;94038.06;10516155;28;2622;-77
2023/10/26 03:20:09;;;;;;;;;;;;;;;9.24;100.00;94036.13;10507801;28;2712;-76
2023/10/26 03:25:16;;;;;;;;;;;;;;;9.12;100.00;94037.47;10493811;28;2600;-75
2023/10/26 03:30:20;;;;;;;;;;;;;;;8.95;100.00;94048.06;10513716;28;2647;-76
2023/10/26 03:35:27;;;;;;;;;;;;;;;8.86;100.00;94039.19;10505514;28;2830;-77
2023/10/26 03:40:34;;;;;;;;;;;;;;;8.75;100.00;94045.88;10488486;28;2578;-74
2023/10/26 03:45:41;;;;;;;;;;;;;;;8.70;100.00;94041.41;10525323;28;2658;-73
2023/10/26 03:50:44;;;;;;;;;;;;;;;8.64;100.00;94054.13;10507215;28;5335;-75
2023/10/26 03:55:55;;;;;;;;;;;;;;;8.60;100.00;94052.38;10510026;28;2598;-75
2023/10/26 04:00:58;;;;;;;;;;;;;;;8.62;100.00;94048.31;10492593;28;2921;-78
2023/10/26 04:06:04;;;;;;;;;;;;;;;8.57;100.00;94037.69;10509505;28;2685;-77
2023/10/26 04:11:11;;;;;;;;;;;;;;;8.77;100.00;94033.75;10493077;28;2633;-74
2023/10/26 04:16:15;;;;;;;;;;;;;;;8.71;100.00;94023.47;10513542;28;2843;-76
2023/10/26 04:21:20;;;;;;;;;;;;;;;8.61;100.00;94027.97;10497604;28;2921;-77
2023/10/26 04:26:34;;;;;;;;;;;;;;;8.50;100.00;94026.63;10507146;28;2947;-75
2023/10/26 04:31:39;;;;;;;;;;;;;;;8.55;100.00;94021.16;10508507;28;2596;-74
2023/10/26 04:36:47;;;;;;;;;;;;;;;8.37;100.00;94022.88;10526578;28;2767;-76
2023/10/26 04:41:51;;;;;;;;;;;;;;;8.32;100.00;94017.59;10507332;28;2716;-76
2023/10/26 04:46:54;;;;;;;;;;;;;;;8.25;100.00;94011.09;10511325;28;2640;-76
2023/10/26 04:51:58;;;;;;;;;;;;;;;8.18;100.00;94005.34;10511238;28;5136;-77
2023/10/26 04:57:20;;;;;;;;;;;;;;;8.21;100.00;93999.41;10508253;28;2848;-75
2023/10/26 05:02:24;;;;;;;;;;;;;;;8.25;100.00;94017.22;10503267;28;2785;-75
2023/10/26 05:07:30;;;;;;;;;;;;;;;8.40;100.00;94018.84;10493490;28;2573;-76
2023/10/26 05:12:34;;;;;;;;;;;;;;;8.45;100.00;94018.69;10481436;28;2577;-75
2023/10/26 05:17:40;;;;;;;;;;;;;;;8.45;100.00;94026.72;10510842;28;2612;-76
2023/10/26 05:22:45;;;;;;;;;;;;;;;8.49;100.00;94033.06;10506983;28;2702;-74
2023/10/26 05:27:53;;;;;;;;;;;;;;;8.51;100.00;94014.81;10517081;28;2929;-76
2023/10/26 05:32:59;;;;;;;;;;;;;;;8.51;100.00;94014.81;10501646;28;2561;-75
2023/10/26 05:38:04;;;;;;;;;;;;;;;8.53;100.00;94018.00;10513536;28;2917;-73
2023/10/26 05:43:08;;;;;;;;;;;;;;;8.66;100.00;94022.50;10513287;28;2539;-76
2023/10/26 05:48:11;;;;;;;;;;;;;;;8.88;100.00;94016.34;10506576;28;5471;-76
2023/10/26 05:53:19;;;;;;;;;;;;;;;9.31;100.00;94015.03;10525253;28;2773;-74
2023/10/26 05:58:31;;;;;;;;;;;;;;;9.52;100.00;94015.25;10489111;28;2673;-77
2023/10/26 06:03:38;;;;;;;;;;;;;;;9.48;100.00;94021.25;10476009;28;2642;-78
2023/10/26 06:08:43;;;;;;;;;;;;;;;9.53;100.00;94020.31;10522739;28;2641;-73
2023/10/26 06:13:53;;;;;;;;;;;;;;;9.70;100.00;94033.00;10485861;28;2828;-73
2023/10/26 06:18:58;;;;;;;;;;;;;;;9.59;100.00;94037.06;10495930;28;2971;-75
2023/10/26 06:24:03;;;;;;;;;;;;;;;9.62;100.00;94058.72;10526586;28;2663;-74
2023/10/26 06:29:09;;;;;;;;;;;;;;;9.77;100.00;94062.09;10524281;27;2562;-76
2023/10/26 06:34:13;;;;;;;;;;;;;;;9.84;100.00;94065.09;10515667;28;2896;-76
2023/10/26 06:39:16;;;;;;;;;;;;;;;9.86;100.00;94079.00;10508563;28;2541;-75
2023/10/26 06:44:23;;;;;;;;;;;;;;;9.84;100.00;94076.63;10509692;28;2430;-72
2023/10/26 06:49:26;;;;;;;;;;;;;;;9.79;100.00;94067.91;10514652;28;5301;-74
2023/10/26 06:54:33;;;;;;;;;;;;;;;9.72;100.00;94073.72;10505014;28;2530;-75
2023/10/26 06:59:37;;;;;;;;;;;;;;;9.63;100.00;94060.28;10505802;28;1471;-72
2023/10/26 07:04:41;;;;;;;;;;;;;;;9.64;100.00;94066.44;10526868;28;2296;-77
2023/10/26 07:09:49;;;;;;;;;;;;;;;9.71;100.00;94067.56;10495070;28;1457;-76
2023/10/26 07:14:59;;;;;;;;;;;;;;;9.77;100.00;94070.91;10525512;28;1943;-71
2023/10/26 07:20:03;;;;;;;;;;;;;;;9.85;100.00;94059.41;10516980;28;1456;-73
2023/10/26 07:25:07;;;;;;;;;;;;;;;9.91;100.00;94055.50;10512469;28;1470;-77
2023/10/26 07:30:11;;;;;;;;;;;;;;;10.01;100.00;94071.34;10517821;28;2909;-76
2023/10/26 07:35:15;;;;;;;;;;;;;;;10.21;100.00;94069.19;10525730;28;1910;-73
2023/10/26 07:40:22;;;;;;;;;;;;;;;10.51;100.00;94056.78;10520983;28;1567;-72
2023/10/26 07:45:37;;;;;;;;;;;;;;;10.74;100.00;94055.50;10540154;28;1686;-69
2023/10/26 07:50:43;;;;;;;;;;;;;;;11.10;100.00;94046.34;10522453;28;5196;-71
2023/10/26 07:55:48;;;;;;;;;;;;;;;11.33;100.00;94034.28;10525640;28;2621;-75
2023/10/26 08:00:52;;;;;;;;;;;;;;;11.49;100.00;94031.06;10491104;28;1819;-71
2023/10/26 08:05:55;;;;;;;;;;;;;;;11.80;100.00;94039.66;10490207;28;1652;-72
2023/10/26 08:11:03;;;;;;;;;;;;;;;11.57;100.00;94033.72;10518585;28;2399;-72
2023/10/26 08:16:08;;;;;;;;;;;;;;;11.70;100.00;94045.38;10527866;28;2802;-71
2023/10/26 08:21:33;;;;;;;;;;;;;;;11.76;100.00;94046.78;10522736;28;1779;-70
2023/10/26 08:26:40;;;;;;;;;;;;;;;11.72;100.00;94050.47;10486381;28;1584;-71
2023/10/26 08:31:53;;;;;;;;;;;;;;;11.62;100.00;94048.91;10535136;28;1536;-70
2023/10/26 08:36:57;;;;;;;;;;;;;;;11.66;100.00;94036.41;10528075;27;1642;-71
2023/10/26 08:42:11;;;;;;;;;;;;;;;11.76;100.00;94048.69;10511635;28;1503;-72
2023/10/26 08:47:19;;;;;;;;;;;;;;;11.74;100.00;94059.00;10515227;28;1882;-72
2023/10/26 08:52:34;;;;;;;;;;;;;;;11.79;100.00;94056.13;10519762;28;4917;-72
2023/10/26 08:57:38;;;;;;;;;;;;;;;11.73;100.00;94052.84;10496770;28;1542;-74
2023/10/26 09:02:45;;;;;;;;;;;;;;;11.70;100.00;94045.38;10523032;28;3296;-73
2023/10/26 09:07:53;;;;;;;;;;;;;;;11.75;100.00;94050.59;10497265;28;1711;-71
2023/10/26 09:13:00;;;;;;;;;;;;;;;11.92;100.00;94044.41;10538020;27;1913;-74
2023/10/26 09:18:07;;;;;;;;;;;;;;;11.99;100.00;94049.28;10524350;28;1612;-73
2023/10/26 09:23:12;;;;;;;;;;;;;;;11.95;100.00;94051.03;10486752;28;1702;-73
2023/10/26 09:28:16;;;;;;;;;;;;;;;12.00;100.00;94057.03;10507298;28;2353;-71
2023/10/26 09:33:23;;;;;;;;;;;;;;;11.83;100.00;94071.38;10498516;28;1967;-74
2023/10/26 09:38:29;;;;;;;;;;;;;;;11.65;100.00;94088.66;10519123;28;1502;-72
2023/10/26 09:43:40;;;;;;;;;;;;;;;11.24;100.00;94091.88;10529318;28;1489;-73
2023/10/26 09:48:44;;;;;;;;;;;;;;;11.01;100.00;94085.91;10540335;27;5357;-73
2023/10/26 09:53:50;;;;;;;;;;;;;;;10.90;100.00;94080.03;10536156;28;1971;-73
2023/10/26 09:58:54;;;;;;;;;;;;;;;10.90;100.00;94071.19;10534110;28;2531;-71
2023/10/26 10:03:57;;;;;;;;;;;;;;;10.96;100.00;94073.41;10526960;28;2534;-74
2023/10/26 10:09:02;;;;;;;;;;;;;;;11.18;100.00;94085.06;10527805;28;3255;-72
2023/10/26 10:14:05;;;;;;;;;;;;;;;11.12;100.00;94081.75;10526938;28;1910;-73
2023/10/26 10:19:09;;;;;;;;;;;;;;;11.24;100.00;94092.66;10531000;28;2525;-72
2023/10/26 10:24:15;;;;;;;;;;;;;;;11.24;100.00;94089.19;10512596;28;2679;-74
2023/10/26 10:29:21;;;;;;;;;;;;;;;11.19;100.00;94079.38;10511790;28;1718;-76
2023/10/26 10:34:25;;;;;;;;;;;;;;;11.24;100.00;94089.97;10528351;28;1910;-73
2023/10/26 10:39:28;;;;;;;;;;;;;;;11.12;100.00;94081.75;10514506;28;1516;-74
2023/10/26 10:44:32;;;;;;;;;;;;;;;11.07;100.00;94084.63;10520349;28;2328;-73
2023/10/26 10:49:39;;;;;;;;;;;;;;;11.04;100.00;94077.19;10544400;27;5099;-72
2023/10/26 10:54:44;;;;;;;;;;;;;;;11.14;100.00;94058.03;10529417;28;2530;-72
2023/10/26 11:00:03;;;;;;;;;;;;;;;11.18;100.00;94061.66;10539916;28;1826;-72
2023/10/26 11:05:08;;;;;;;;;;;;;;;11.50;100.00;94038.03;10527919;28;2624;-72
2023/10/26 11:10:25;;;;;;;;;;;;;;;11.48;100.00;94030.28;10528359;28;2604;-73
2023/10/26 11:15:28;;;;;;;;;;;;;;;11.84;100.00;94039.84;10527888;28;1942;-72
2023/10/26 11:20:33;;;;;;;;;;;;;;;11.80;100.00;94020.81;10514153;28;1443;-72
2023/10/26 11:25:36;;;;;;;;;;;;;;;12.12;100.00;94021.31;10521858;28;2616;-74
2023/10/26 11:30:40;;;;;;;;;;;;;;;12.74;100.00;94019.81;10507607;28;2600;-71
2023/10/26 11:35:43;;;;;;;;;;;;;;;13.30;100.00;94002.19;10525810;28;1891;-73
2023/10/26 11:40:46;;;;;;;;;;;;;;;13.59;100.00;93989.63;10482481;28;1481;-72
2023/10/26 11:45:49;;;;;;;;;;;;;;;13.99;100.00;93985.16;10497000;28;1772;-72
2023/10/26 11:50:54;;;;;;;;;;;;;;;14.23;100.00;93972.75;10520077;28;5140;-71
2023/10/26 11:55:58;;;;;;;;;;;;;;;14.47;100.00;93978.16;10510710;28;1913;-72
2023/10/26 12:01:03;;;;;;;;;;;;;;;14.72;100.00;93975.38;10539175;28;1728;-71
2023/10/26 12:06:10;;;;;;;;;;;;;;;14.68;100.00;93963.66;10523951;28;1657;-71
2023/10/26 12:11:13;;;;;;;;;;;;;;;15.04;100.00;93949.22;10518919;28;2526;-73
2023/10/26 12:16:17;;;;;;;;;;;;;;;14.63;100.00;93950.38;10494963;28;1910;-71
2023/10/26 12:21:21;;;;;;;;;;;;;;;14.78;100.00;93936.16;10511496;28;1552;-75
2023/10/26 12:26:25;;;;;;;;;;;;;;;15.08;100.00;93933.88;10523006;28;1674;-72
2023/10/26 12:31:28;;;;;;;;;;;;;;;15.05;100.00;93937.25;10514896;28;1479;-73
2023/10/26 12:36:33;;;;;;;;;;;;;;;14.99;100.00;93936.72;10502713;28;2322;-70
2023/10/26 12:41:37;;;;;;;;;;;;;;;14.86;100.00;93932.50;10492762;28;2610;-77
2023/10/26 12:46:42;;;;;;;;;;;;;;;14.50;100.00;93941.53;10510569;28;2223;-71
2023/10/26 12:51:46;;;;;;;;;;;;;;;14.36;100.00;93958.09;10504543;28;5144;-78
2023/10/26 12:56:50;;;;;;;;;;;;;;;14.18;100.00;93946.75;10528096;28;2593;-72
2023/10/26 13:01:55;;;;;;;;;;;;;;;14.13;100.00;93943.53;10527101;28;1665;-70
2023/10/26 13:06:59;;;;;;;;;;;;;;;14.18;100.00;93935.16;10503956;28;1577;-71
2023/10/26 13:12:10;;;;;;;;;;;;;;;13.93;100.00;93916.31;10493829;28;2915;-71
2023/10/26 13:17:14;;;;;;;;;;;;;;;13.70;100.00;93934.09;10527161;27;1968;-70
2023/10/26 13:22:21;;;;;;;;;;;;;;;13.52;100.00;93931.59;10520233;28;2625;-70
2023/10/26 13:27:28;;;;;;;;;;;;;;;13.48;100.00;93933.38;10511448;28;1801;-70
2023/10/26 13:32:32;;;;;;;;;;;;;;;13.36;100.00;93940.69;10500153;28;1854;-72
2023/10/26 13:37:36;;;;;;;;;;;;;;;13.21;100.00;93942.13;10502492;28;2693;-72
2023/10/26 13:42:42;;;;;;;;;;;;;;;13.14;100.00;93941.84;10521010;28;2526;-71
2023/10/26 13:47:49;;;;;;;;;;;;;;;13.07;100.00;93934.31;10514747;28;5160;-75
2023/10/26 13:52:56;;;;;;;;;;;;;;;13.16;100.00;93945.00;10502232;28;1938;-72
2023/10/26 13:57:59;;;;;;;;;;;;;;;13.40;100.00;93945.06;10525366;28;1985;-71
2023/10/26 14:03:06;;;;;;;;;;;;;;;13.46;100.00;93938.34;10521308;28;1502;-72
2023/10/26 14:08:11;;;;;;;;;;;;;;;13.50;100.00;93944.66;10522799;28;1505;-71
2023/10/26 14:13:15;;;;;;;;;;;;;;;13.59;100.00;93927.53;10523109;28;2468;-71
2023/10/26 14:18:19;;;;;;;;;;;;;;;13.65;100.00;93918.09;10523430;28;2534;-71
2023/10/26 14:23:22;;;;;;;;;;;;;;;13.56;100.00;93909.34;10494298;28;1897;-72
2023/10/26 14:28:27;;;;;;;;;;;;;;;13.34;100.00;93908.63;10526972;28;1752;-72
2023/10/26 14:33:30;;;;;;;;;;;;;;;13.21;100.00;93904.34;10541669;28;2107;-70
2023/10/26 14:38:36;;;;;;;;;;;;;;;13.22;100.00;93897.81;10528089;28;1508;-71
2023/10/26 14:43:49;;;;;;;;;;;;;;;13.14;100.00;93914.88;10538167;28;2734;-73
2023/10/26 14:49:02;;;;;;;;;;;;;;;13.19;100.00;93901.97;10508291;28;5279;-72
2023/10/26 14:54:06;;;;;;;;;;;;;;;13.18;100.00;93900.41;10518048;28;2489;-72
2023/10/26 14:59:11;;;;;;;;;;;;;;;13.05;100.00;93895.31;10538631;28;2646;-72
2023/10/26 15:04:15;;;;;;;;;;;;;;;12.99;100.00;93889.34;10505638;28;2907;-76
2023/10/26 15:09:20;;;;;;;;;;;;;;;12.99;100.00;93878.56;10516081;28;2254;-74
2023/10/26 15:14:46;;;;;;;;;;;;;;;12.99;100.00;93868.56;10501669;28;1981;-73
2023/10/26 15:19:50;;;;;;;;;;;;;;;12.90;100.00;93869.75;10512839;28;2718;-72
2023/10/26 15:24:53;;;;;;;;;;;;;;;12.81;100.00;93859.06;10501360;28;2518;-75
2023/10/26 15:29:55;;;;;;;;;;;;;;;12.60;100.00;93859.13;10519291;28;2584;-72
2023/10/26 15:35:06;;;;;;;;;;;;;;;12.44;100.00;93856.25;10508942;28;2568;-72
2023/10/26 15:40:12;;;;;;;;;;;;;;;12.31;100.00;93856.56;10503765;28;2846;-76
2023/10/26 15:45:16;;;;;;;;;;;;;;;12.28;100.00;93847.25;10496265;28;2770;-72
2023/10/26 15:50:20;;;;;;;;;;;;;;;12.28;100.00;93836.47;10502771;28;5162;-71
2023/10/26 15:55:28;;;;;;;;;;;;;;;12.24;100.00;93846.31;10513002;28;2569;-74
2023/10/26 16:00:32;;;;;;;;;;;;;;;12.14;100.00;93849.41;10518823;28;2629;-71
2023/10/26 16:05:42;;;;;;;;;;;;;;;12.11;100.00;93850.06;10486928;28;2825;-71
2023/10/26 16:10:52;;;;;;;;;;;;;;;12.05;100.00;93852.19;10502966;28;3051;-72
2023/10/26 16:16:04;;;;;;;;;;;;;;;12.02;100.00;93860.13;10506504;28;2576;-73
2023/10/26 16:21:11;;;;;;;;;;;;;;;11.89;100.00;93865.44;10489364;28;2890;-72
2023/10/26 16:26:16;;;;;;;;;;;;;;;11.87;100.00;93854.22;10512360;28;3023;-72
2023/10/26 16:31:22;;;;;;;;;;;;;;;11.82;100.00;93859.00;10514245;28;2661;-71
2023/10/26 16:36:28;;;;;;;;;;;;;;;11.77;100.00;93857.28;10491088;28;2947;-71
2023/10/26 16:41:32;;;;;;;;;;;;;;;11.72;100.00;93852.06;10522211;28;2124;-76
2023/10/26 16:46:38;;;;;;;;;;;;;;;11.69;100.00;93858.09;10535823;28;2888;-72
2023/10/26 16:51:42;;;;;;;;;;;;;;;11.72;100.00;93862.06;10506236;28;5038;-73
2023/10/26 16:56:48;;;;;;;;;;;;;;;11.71;100.00;93850.50;10543633;28;2957;-71
2023/10/26 17:01:52;;;;;;;;;;;;;;;11.72;100.00;93846.69;10530584;28;2590;-72
2023/10/26 17:06:56;;;;;;;;;;;;;;;11.68;100.00;93844.97;10525827;28;2553;-70
2023/10/26 17:12:05;;;;;;;;;;;;;;;11.69;100.00;93839.25;10541008;28;1865;-71
2023/10/26 17:17:10;;;;;;;;;;;;;;;11.68;100.00;93824.22;10538951;28;1927;-72
2023/10/26 17:22:15;;;;;;;;;;;;;;;11.72;100.00;93819.00;10490563;28;2003;-71
2023/10/26 17:27:17;;;;;;;;;;;;;;;11.68;100.00;93818.06;10530915;28;1480;-71
2023/10/26 17:32:23;;;;;;;;;;;;;;;11.67;100.00;93811.91;10504050;28;2007;-71
2023/10/26 17:37:28;;;;;;;;;;;;;;;11.68;100.00;93818.06;10509038;28;2809;-72
2023/10/26 17:42:32;;;;;;;;;;;;;;;11.71;100.00;93820.91;10528855;28;1581;-71
2023/10/26 17:47:49;;;;;;;;;;;;;;;11.79;100.00;93830.03;10523980;28;5061;-70
2023/10/26 17:52:53;;;;;;;;;;;;;;;11.84;100.00;93838.72;10515664;28;1861;-74
2023/10/26 17:57:59;;;;;;;;;;;;;;;11.89;100.00;93851.97;10515169;28;2642;-70
2023/10/26 18:03:07;;;;;;;;;;;;;;;12.04;100.00;93847.13;10514282;28;2549;-72
2023/10/26 18:08:12;;;;;;;;;;;;;;;12.11;100.00;93842.00;10493002;28;2568;-71
2023/10/26 18:13:18;;;;;;;;;;;;;;;12.21;100.00;93825.41;10520023;28;2612;-73
2023/10/26 18:18:25;;;;;;;;;;;;;;;12.23;100.00;93822.41;10522319;28;2580;-71
2023/10/26 18:23:29;;;;;;;;;;;;;;;12.22;100.00;93810.84;10544560;28;2763;-77
2023/10/26 18:28:36;;;;;;;;;;;;;;;12.23;100.00;93806.25;10508614;28;1499;-74
2023/10/26 18:33:41;;;;;;;;;;;;;;;12.27;100.00;93810.63;10525905;28;1601;-75
2023/10/26 18:38:56;;;;;;;;;;;;;;;12.26;100.00;93806.34;10530802;28;2238;-72
2023/10/26 18:44:00;;;;;;;;;;;;;;;12.23;100.00;93817.03;10520444;28;1467;-71
2023/10/26 18:49:05;;;;;;;;;;;;;;;12.16;100.00;93817.56;10505812;28;5453;-70
2023/10/26 18:54:08;;;;;;;;;;;;;;;12.15;100.00;93815.97;10496383;28;1503;-78
2023/10/26 18:59:20;;;;;;;;;;;;;;;12.11;100.00;93812.38;10490980;28;1996;-72
2023/10/26 19:04:24;;;;;;;;;;;;;;;12.07;100.00;93819.53;10498349;28;1693;-70
2023/10/26 19:09:30;;;;;;;;;;;;;;;12.06;100.00;93817.94;10511639;28;2792;-71
2023/10/26 19:14:34;;;;;;;;;;;;;;;12.05;100.00;93821.78;10529395;28;1785;-71
2023/10/26 19:19:43;;;;;;;;;;;;;;;12.17;100.00;93819.13;10522690;28;1902;-71
2023/10/26 19:24:46;;;;;;;;;;;;;;;12.15;100.00;93826.72;10516054;28;1713;-71
2023/10/26 19:29:51;;;;;;;;;;;;;;;12.18;100.00;93820.69;10522461;28;1568;-72
2023/10/26 19:34:54;;;;;;;;;;;;;;;12.23;100.00;93836.66;10491282;28;1902;-72
2023/10/26 19:40:00;;;;;;;;;;;;;;;12.12;100.00;93830.88;10528906;28;1435;-77
2023/10/26 19:45:05;;;;;;;;;;;;;;;12.16;100.00;93839.91;10533032;28;1551;-73
2023/10/26 19:50:10;;;;;;;;;;;;;;;12.24;100.00;93838.25;10543737;28;4853;-72
2023/10/26 19:55:14;;;;;;;;;;;;;;;12.24;100.00;93840.94;10513899;28;2913;-71
2023/10/26 20:00:18;;;;;;;;;;;;;;;12.17;100.00;93846.06;10524582;28;1537;-70
2023/10/26 20:05:23;;;;;;;;;;;;;;;12.09;100.00;93838.84;10531721;28;1700;-71
2023/10/26 20:10:27;;;;;;;;;;;;;;;11.96;100.00;93848.78;10513813;28;2173;-71
2023/10/26 20:15:34;;;;;;;;;;;;;;;11.85;100.00;93840.28;10518483;28;1922;-71
2023/10/26 20:20:39;;;;;;;;;;;;;;;11.79;100.00;93846.19;10505856;28;1613;-69
2023/10/26 20:25:46;;;;;;;;;;;;;;;11.73;100.00;93832.13;10517254;28;1606;-70
2023/10/26 20:30:49;;;;;;;;;;;;;;;11.64;100.00;93836.75;10498623;28;1544;-71
2023/10/26 20:36:00;;;;;;;;;;;;;;;11.64;100.00;93834.06;10503365;28;2765;-71
2023/10/26 20:41:06;;;;;;;;;;;;;;;11.61;100.00;93829.34;10520171;28;1662;-70
2023/10/26 20:46:10;;;;;;;;;;;;;;;11.54;100.00;93837.16;10502086;28;1482;-71
2023/10/26 20:51:13;;;;;;;;;;;;;;;11.22;100.00;93823.25;10488469;28;5109;-71
2023/10/26 20:56:17;;;;;;;;;;;;;;;11.13;100.00;93819.81;10531761;28;1917;-72
2023/10/26 21:01:23;;;;;;;;;;;;;;;11.00;100.00;93808.16;10494620;28;1472;-71
2023/10/26 21:06:26;;;;;;;;;;;;;;;10.94;100.00;93806.78;10479410;28;1453;-70
2023/10/26 21:11:29;;;;;;;;;;;;;;;10.89;100.00;93796.22;10512486;28;1505;-73
2023/10/26 21:16:33;;;;;;;;;;;;;;;10.83;100.00;93790.22;10483191;28;1994;-73
2023/10/26 21:21:37;;;;;;;;;;;;;;;10.71;100.00;93776.69;10511036;28;2553;-74
2023/10/26 21:26:41;;;;;;;;;;;;;;;10.45;100.00;93771.41;10470898;28;1459;-75
2023/10/26 21:31:46;;;;;;;;;;;;;;;10.39;100.00;93769.22;10485052;28;1557;-75
2023/10/26 21:36:53;;;;;;;;;;;;;;;10.39;100.00;93761.94;10488313;28;1905;-74
2023/10/26 21:41:57;;;;;;;;;;;;;;;10.25;100.00;93753.31;10481309;28;1630;-73
2023/10/26 21:47:00;;;;;;;;;;;;;;;10.32;100.00;93752.81;10504100;28;1539;-74
2023/10/26 21:52:07;;;;;;;;;;;;;;;9.96;100.00;93744.00;10538704;28;5092;-74
2023/10/26 21:57:10;;;;;;;;;;;;;;;9.62;100.00;93730.66;10487690;28;1985;-74
2023/10/26 22:02:14;;;;;;;;;;;;;;;9.50;100.00;93733.19;10504790;28;1633;-74
2023/10/26 22:07:18;;;;;;;;;;;;;;;9.35;100.00;93716.47;10518741;28;1470;-74
2023/10/26 22:12:21;;;;;;;;;;;;;;;9.06;100.00;93709.03;10519857;28;1520;-75
2023/10/26 22:17:24;;;;;;;;;;;;;;;9.04;100.00;93710.47;10519683;28;1980;-74
2023/10/26 22:22:28;;;;;;;;;;;;;;;8.72;100.00;93692.91;10501827;28;2512;-74
2023/10/26 22:27:32;;;;;;;;;;;;;;;8.71;100.00;93683.28;10518046;28;1688;-76
2023/10/26 22:32:36;;;;;;;;;;;;;;;8.68;100.00;93674.00;10502968;28;1479;-75
2023/10/26 22:37:40;;;;;;;;;;;;;;;8.77;100.00;93660.59;10483242;28;1978;-73
2023/10/26 22:42:43;;;;;;;;;;;;;;;8.80;100.00;93635.88;10514615;28;2138;-75
2023/10/26 22:47:45;;;;;;;;;;;;;;;8.92;100.00;93636.03;10492399;28;5291;-75
2023/10/26 22:52:49;;;;;;;;;;;;;;;9.02;100.00;93632.25;10499869;28;1759;-76
2023/10/26 22:57:52;;;;;;;;;;;;;;;8.97;100.00;93627.84;10527750;28;1972;-76
2023/10/26 23:02:54;;;;;;;;;;;;;;;9.03;100.00;93628.47;10543011;28;1649;-77
2023/10/26 23:07:57;;;;;;;;;;;;;;;9.06;100.00;93627.84;10544468;28;2548;-73
2023/10/26 23:13:01;;;;;;;;;;;;;;;9.19;100.00;93622.31;10540181;28;1527;-76
2023/10/26 23:18:04;;;;;;;;;;;;;;;9.32;100.00;93625.13;10544252;28;1914;-75
2023/10/26 23:23:07;;;;;;;;;;;;;;;9.17;100.00;93627.22;10523359;28;2166;-75
2023/10/26 23:28:10;;;;;;;;;;;;;;;9.24;100.00;93615.22;10523941;28;1520;-74
2023/10/26 23:33:13;;;;;;;;;;;;;;;9.26;100.00;93613.78;10530863;28;2632;-75
2023/10/26 23:38:19;;;;;;;;;;;;;;;9.36;100.00;93613.47;10510390;28;2729;-77
2023/10/26 23:43:22;;;;;;;;;;;;;;;9.38;100.00;93608.56;10492061;28;2962;-70
2023/10/26 23:48:27;;;;;;;;;;;;;;;9.28;100.00;93600.06;10495412;28;6451;-73
2023/10/26 23:53:31;;;;;;;;;;;;;;;9.16;100.00;93585.44;10498826;28;2549;-73
2023/10/26 23:58:34;;;;;;;;;;;;;;;9.05;100.00;93583.41;10512559;28;2624;-70
